Time;durP1;ratioP1;P1;durP2;ratioP2;P2;SDS_P1;SDS_P2;PMS_P1;PMS_P2;Temp;Humidity;BMP_temperature;BMP_pressure;BME280_temperature;BME280_humidity;BME280_pressure;Samples;Min_cycle;Max_cycle;Signal;HPM_P1;HPM_P2
2021/07/01 00:01:08;;;;;;;83.05;39.08;;;;;;;12.24;100.00;101397.09;5075459;28;20464;-67
2021/07/01 00:03:33;;;;;;;82.93;39.47;;;;;;;12.22;100.00;101385.59;5075514;28;20031;-68
2021/07/01 00:05:58;;;;;;;80.63;38.45;;;;;;;12.21;100.00;101387.34;5075438;28;20103;-69
2021/07/01 00:08:24;;;;;;;86.97;38.25;;;;;;;12.21;100.00;101382.03;5075424;28;20037;-69
2021/07/01 00:10:50;;;;;;;81.15;37.90;;;;;;;12.25;100.00;101384.75;5075286;28;20035;-68
2021/07/01 00:13:15;;;;;;;86.85;39.38;;;;;;;12.25;100.00;101388.28;5075105;28;20020;-69
2021/07/01 00:15:41;;;;;;;89.35;39.40;;;;;;;12.21;100.00;101392.66;5075461;28;20029;-69
2021/07/01 00:18:06;;;;;;;81.38;37.95;;;;;;;12.24;100.00;101390.91;5075064;28;20028;-69
2021/07/01 00:20:32;;;;;;;79.88;37.90;;;;;;;12.27;100.00;101385.63;5073781;28;20048;-69
2021/07/01 00:22:57;;;;;;;79.13;37.05;;;;;;;12.26;100.00;101394.44;5075363;28;20074;-67
2021/07/01 00:25:24;;;;;;;68.68;33.13;;;;;;;12.26;100.00;101398.00;5075053;28;20092;-69
2021/07/01 00:27:50;;;;;;;81.57;37.88;;;;;;;12.21;100.00;101397.94;5075313;28;20108;-70
2021/07/01 00:30:17;;;;;;;74.15;36.15;;;;;;;12.21;100.00;101395.31;5075435;28;20032;-69
2021/07/01 00:32:43;;;;;;;77.32;36.13;;;;;;;12.18;100.00;101391.75;5074822;28;20028;-69
2021/07/01 00:35:10;;;;;;;80.63;35.55;;;;;;;12.24;100.00;101397.09;5074949;28;20037;-69
2021/07/01 00:37:36;;;;;;;70.45;32.78;;;;;;;12.21;100.00;101397.06;5075086;28;20025;-68
2021/07/01 00:40:05;;;;;;;68.65;34.08;;;;;;;12.15;100.00;101402.34;5074874;28;20028;-67
2021/07/01 00:42:31;;;;;;;73.40;34.05;;;;;;;12.17;100.00;101400.56;5071146;28;20382;-69
2021/07/01 00:44:56;;;;;;;67.68;32.90;;;;;;;12.17;100.00;101406.78;5081817;28;20135;-69
2021/07/01 00:47:23;;;;;;;74.93;35.15;;;;;;;12.10;100.00;101402.31;5074583;28;20033;-69
2021/07/01 00:49:49;;;;;;;75.82;34.60;;;;;;;12.08;100.00;101401.41;5074769;28;20111;-69
2021/07/01 00:52:14;;;;;;;72.70;34.17;;;;;;;12.11;100.00;101404.06;5074807;28;20051;-68
2021/07/01 00:54:40;;;;;;;74.80;34.78;;;;;;;12.06;100.00;101403.16;5074860;28;20036;-69
2021/07/01 00:57:06;;;;;;;71.57;34.17;;;;;;;12.11;100.00;101395.25;5074474;28;20045;-69
2021/07/01 00:59:32;;;;;;;71.82;34.38;;;;;;;12.07;100.00;101399.63;5074569;28;20033;-69
2021/07/01 01:01:57;;;;;;;81.30;35.30;;;;;;;12.07;100.00;101399.63;5074645;28;20071;-69
2021/07/01 01:04:23;;;;;;;71.47;33.83;;;;;;;12.11;100.00;101404.06;5074436;28;20379;-69
2021/07/01 01:06:48;;;;;;;78.10;33.45;;;;;;;12.09;100.00;101394.34;5074531;28;20032;-69
2021/07/01 01:09:13;;;;;;;75.80;35.10;;;;;;;12.13;100.00;101390.81;5074292;28;20044;-69
2021/07/01 01:11:39;;;;;;;77.15;34.65;;;;;;;12.07;100.00;101389.03;5074681;28;20029;-69
2021/07/01 01:14:05;;;;;;;73.93;34.28;;;;;;;12.12;100.00;101389.94;5074255;28;20087;-69
2021/07/01 01:16:31;;;;;;;73.07;36.03;;;;;;;12.07;100.00;101388.16;5070414;28;20418;-68
2021/07/01 01:18:56;;;;;;;74.40;34.78;;;;;;;12.06;100.00;101381.97;5074181;28;20413;-68
2021/07/01 01:21:27;;;;;;;80.78;36.53;;;;;;;12.02;100.00;101385.47;5074290;28;20032;-69
2021/07/01 01:23:57;;;;;;;76.35;35.42;;;;;;;12.04;100.00;101383.69;5073981;28;20165;-68
2021/07/01 01:26:22;;;;;;;76.40;35.75;;;;;;;12.04;100.00;101386.34;5074342;28;20067;-68
2021/07/01 01:28:52;;;;;;;73.50;33.38;;;;;;;12.03;100.00;101380.19;5073932;28;20056;-68
2021/07/01 01:31:18;;;;;;;80.70;37.90;;;;;;;11.97;100.00;101387.19;5073686;28;20032;-67
2021/07/01 01:33:43;;;;;;;83.43;37.97;;;;;;;11.94;100.00;101388.06;5074009;28;20017;-70
2021/07/01 01:36:09;;;;;;;78.90;36.55;;;;;;;11.97;100.00;101393.38;5073826;28;20035;-69
2021/07/01 01:38:34;;;;;;;73.57;35.35;;;;;;;12.00;100.00;101390.75;5073720;28;20034;-66
2021/07/01 01:41:00;;;;;;;73.93;35.80;;;;;;;12.01;100.00;101396.94;5074136;28;20452;-65
2021/07/01 01:43:25;;;;;;;73.13;34.40;;;;;;;12.06;100.00;101392.56;5073605;28;20031;-62
2021/07/01 01:45:51;;;;;;;74.13;35.92;;;;;;;12.06;100.00;101395.22;5073454;28;20033;-62
2021/07/01 01:48:17;;;;;;;67.90;33.47;;;;;;;12.08;100.00;101389.94;5073509;28;20056;-62
2021/07/01 01:50:42;;;;;;;79.88;36.58;;;;;;;12.00;100.00;101395.19;5073308;28;20059;-62
2021/07/01 01:53:09;;;;;;;73.05;35.08;;;;;;;12.07;100.00;101393.44;5073524;28;20024;-62
2021/07/01 01:55:36;;;;;;;82.55;36.47;;;;;;;12.01;100.00;101395.19;5073208;28;20020;-68
2021/07/01 01:58:02;;;;;;;80.82;37.88;;;;;;;12.00;100.00;101392.53;5069136;28;20036;-62
2021/07/01 02:00:28;;;;;;;81.78;37.15;;;;;;;11.96;100.00;101391.59;5073359;28;20031;-62
2021/07/01 02:02:54;;;;;;;79.32;36.97;;;;;;;11.97;100.00;101385.44;5073275;28;20376;-63
2021/07/01 02:05:20;;;;;;;83.78;37.60;;;;;;;11.98;100.00;101389.84;5073289;28;20031;-67
2021/07/01 02:07:46;;;;;;;83.05;38.35;;;;;;;11.98;100.00;101394.25;5073066;28;20029;-63
2021/07/01 02:10:18;;;;;;;78.22;36.13;;;;;;;11.99;100.00;101391.63;5071873;28;20033;-64
2021/07/01 02:12:43;;;;;;;79.13;37.53;;;;;;;12.00;100.00;101388.09;5073022;28;20046;-66
2021/07/01 02:15:11;;;;;;;78.93;37.95;;;;;;;11.95;100.00;101391.59;5073174;28;20278;-62
2021/07/01 02:17:37;;;;;;;79.90;36.35;;;;;;;11.98;100.00;101394.25;5072997;28;20032;-62
2021/07/01 02:20:06;;;;;;;76.78;36.78;;;;;;;11.89;100.00;101392.41;5073110;28;20024;-63
2021/07/01 02:22:31;;;;;;;76.35;37.28;;;;;;;11.85;100.00;101387.94;5068762;28;20016;-64
2021/07/01 02:24:57;;;;;;;76.60;34.50;;;;;;;11.83;100.00;101395.88;5073054;28;20028;-65
2021/07/01 02:27:22;;;;;;;78.15;35.30;;;;;;;11.81;100.00;101396.75;5072696;28;20103;-66
2021/07/01 02:29:48;;;;;;;75.95;35.00;;;;;;;11.90;100.00;101399.47;5072976;28;20471;-66
2021/07/01 02:32:14;;;;;;;79.72;36.08;;;;;;;11.88;100.00;101389.75;5072866;28;20514;-69
2021/07/01 02:34:42;;;;;;;81.22;34.58;;;;;;;11.84;100.00;101384.41;5072869;28;20012;-69
2021/07/01 02:37:08;;;;;;;82.57;35.75;;;;;;;11.82;100.00;101385.28;5072637;28;20036;-69
2021/07/01 02:39:34;;;;;;;81.63;35.78;;;;;;;11.83;100.00;101379.13;5072946;28;20024;-66
2021/07/01 02:42:00;;;;;;;84.82;35.33;;;;;;;11.79;100.00;101385.25;5071881;28;20029;-65
2021/07/01 02:44:25;;;;;;;80.43;34.20;;;;;;;11.78;100.00;101386.13;5072514;28;20028;-66
2021/07/01 02:46:51;;;;;;;73.65;33.13;;;;;;;11.78;100.00;101379.09;5072684;28;20021;-69
2021/07/01 02:49:16;;;;;;;76.47;33.28;;;;;;;11.83;100.00;101390.59;5072433;28;20033;-66
2021/07/01 02:51:41;;;;;;;74.35;33.95;;;;;;;11.76;100.00;101383.47;5072809;28;20063;-66
2021/07/01 02:54:06;;;;;;;72.78;32.50;;;;;;;11.72;100.00;101386.97;5072933;28;20059;-66
2021/07/01 02:56:40;;;;;;;66.50;29.63;;;;;;;11.79;100.00;101394.09;5072268;28;20186;-66
2021/07/01 02:59:07;;;;;;;70.75;32.17;;;;;;;11.67;100.00;101394.88;5072535;28;20082;-66
2021/07/01 03:01:33;;;;;;;70.10;31.15;;;;;;;11.74;100.00;101381.72;5068528;28;20021;-67
2021/07/01 03:03:58;;;;;;;70.80;32.80;;;;;;;11.71;100.00;101390.50;5072209;28;20086;-67
2021/07/01 03:06:24;;;;;;;67.00;29.48;;;;;;;11.67;100.00;101384.28;5072372;28;20020;-69
2021/07/01 03:08:49;;;;;;;73.53;30.45;;;;;;;11.69;100.00;101386.94;5072577;28;20036;-69
2021/07/01 03:11:14;;;;;;;70.28;30.42;;;;;;;11.65;100.00;101393.97;5072353;28;20523;-69
2021/07/01 03:13:40;;;;;;;65.38;28.77;;;;;;;11.70;100.00;101391.38;5072730;28;20099;-66
2021/07/01 03:16:05;;;;;;;63.70;29.38;;;;;;;11.63;100.00;101392.19;5072375;28;20476;-68
2021/07/01 03:18:30;;;;;;;68.78;30.65;;;;;;;11.62;100.00;101385.09;5072069;28;20480;-66
2021/07/01 03:20:55;;;;;;;62.22;26.55;;;;;;;11.63;100.00;101397.47;5072315;28;20059;-69
2021/07/01 03:23:21;;;;;;;59.75;26.52;;;;;;;11.66;100.00;101397.50;5072285;28;20020;-69
2021/07/01 03:25:46;;;;;;;60.88;26.88;;;;;;;11.63;100.00;101397.47;5072208;28;20455;-66
2021/07/01 03:28:11;;;;;;;58.97;28.20;;;;;;;11.61;100.00;101396.59;5072272;28;20078;-69
2021/07/01 03:30:37;;;;;;;57.80;25.60;;;;;;;11.62;100.00;101398.34;5072037;28;20101;-69
2021/07/01 03:33:02;;;;;;;54.97;25.50;;;;;;;11.61;100.00;101401.91;5072056;28;20490;-68
2021/07/01 03:35:27;;;;;;;62.85;27.15;;;;;;;11.60;100.00;101406.28;5072187;28;20025;-67
2021/07/01 03:37:53;;;;;;;60.33;26.95;;;;;;;11.57;100.00;101408.03;5071950;28;20053;-68
2021/07/01 03:40:18;;;;;;;58.28;25.45;;;;;;;11.56;100.00;101403.59;5072043;28;20110;-70
2021/07/01 03:42:43;;;;;;;57.97;26.05;;;;;;;11.56;100.00;101400.94;5072378;28;20431;-69
2021/07/01 03:45:09;;;;;;;56.50;24.67;;;;;;;11.52;100.00;101408.88;5072179;28;20031;-68
2021/07/01 03:47:35;;;;;;;56.10;25.67;;;;;;;11.54;100.00;101400.94;5072030;28;20549;-64
2021/07/01 03:50:00;;;;;;;61.00;26.35;;;;;;;11.51;100.00;101396.50;5071743;28;20029;-63
2021/07/01 03:52:26;;;;;;;57.10;26.20;;;;;;;11.51;100.00;101400.91;5071723;28;20021;-63
2021/07/01 03:54:51;;;;;;;58.38;26.58;;;;;;;11.49;100.00;101400.91;5075011;28;20027;-64
2021/07/01 03:57:16;;;;;;;64.00;26.67;;;;;;;11.52;100.00;101400.94;5075377;28;20036;-64
2021/07/01 03:59:41;;;;;;;58.70;25.40;;;;;;;11.52;100.00;101403.56;5075483;28;20032;-64
2021/07/01 04:02:07;;;;;;;58.53;26.95;;;;;;;11.55;100.00;101404.47;5075911;28;20429;-63
2021/07/01 04:04:32;;;;;;;61.95;25.75;;;;;;;11.52;100.00;101408.88;5075676;28;20028;-62
2021/07/01 04:06:58;;;;;;;58.17;26.67;;;;;;;11.54;100.00;101408.00;5075182;28;20025;-62
2021/07/01 04:09:23;;;;;;;54.08;25.95;;;;;;;11.54;100.00;101402.72;5075496;28;20474;-62
2021/07/01 04:11:49;;;;;;;55.33;25.98;;;;;;;11.53;100.00;101399.16;5075251;28;20021;-62
2021/07/01 04:14:17;;;;;;;54.45;26.15;;;;;;;11.52;100.00;101400.06;5075515;28;20025;-62
2021/07/01 04:16:44;;;;;;;53.65;26.55;;;;;;;11.52;100.00;101406.22;5075459;28;20023;-64
2021/07/01 04:19:09;;;;;;;53.50;24.98;;;;;;;11.51;100.00;101409.72;5075432;28;20104;-63
2021/07/01 04:21:35;;;;;;;52.72;24.30;;;;;;;11.51;100.00;101404.44;5075318;28;20468;-63
2021/07/01 04:24:00;;;;;;;55.15;25.38;;;;;;;11.53;100.00;101409.75;5069691;28;20041;-62
2021/07/01 04:26:25;;;;;;;55.22;25.80;;;;;;;11.55;100.00;101408.00;5075310;28;20059;-69
2021/07/01 04:28:51;;;;;;;53.67;23.98;;;;;;;11.54;100.00;101408.00;5075031;28;20017;-62
2021/07/01 04:31:17;;;;;;;52.42;24.33;;;;;;;11.57;100.00;101413.31;5075136;28;20093;-68
2021/07/01 04:33:43;;;;;;;53.10;23.88;;;;;;;11.53;100.00;101407.09;5074816;28;20021;-64
2021/07/01 04:36:08;;;;;;;51.50;23.88;;;;;;;11.49;100.00;101408.84;5075077;28;20157;-69
2021/07/01 04:38:34;;;;;;;49.72;23.30;;;;;;;11.47;100.00;101415.00;5074599;28;20032;-69
2021/07/01 04:40:59;;;;;;;51.83;23.77;;;;;;;11.48;100.00;101409.69;5074809;28;20509;-68
2021/07/01 04:43:24;;;;;;;54.50;23.80;;;;;;;11.50;100.00;101412.38;5075013;28;20143;-67
2021/07/01 04:45:50;;;;;;;50.28;23.38;;;;;;;11.54;100.00;101410.66;5074729;28;20025;-67
2021/07/01 04:48:15;;;;;;;54.00;23.98;;;;;;;11.48;100.00;101412.34;5074758;28;20095;-69
2021/07/01 04:50:40;;;;;;;50.65;22.63;;;;;;;11.48;100.00;101417.66;5074763;28;20025;-68
2021/07/01 04:53:05;;;;;;;55.92;23.60;;;;;;;11.54;100.00;101423.88;5074530;28;20024;-68
2021/07/01 04:55:31;;;;;;;49.95;21.85;;;;;;;11.51;100.00;101417.69;5074752;28;20418;-70
2021/07/01 04:57:56;;;;;;;49.92;22.27;;;;;;;11.54;100.00;101418.59;5074445;28;20395;-70
2021/07/01 05:00:21;;;;;;;48.28;22.50;;;;;;;11.56;100.00;101412.41;5074684;28;20037;-70
2021/07/01 05:02:47;;;;;;;49.42;21.48;;;;;;;11.60;100.00;101413.34;5074461;28;20029;-66
2021/07/01 05:05:12;;;;;;;48.00;21.63;;;;;;;11.61;100.00;101415.13;5073882;28;20024;-67
2021/07/01 05:07:45;;;;;;;46.70;22.60;;;;;;;11.58;100.00;101413.34;5074357;28;20024;-68
2021/07/01 05:10:14;;;;;;;47.72;20.70;;;;;;;11.58;100.00;101415.09;5074101;28;20494;-68
2021/07/01 05:12:39;;;;;;;46.20;21.52;;;;;;;11.59;100.00;101422.16;5074293;28;20063;-68
2021/07/01 05:15:05;;;;;;;43.08;20.58;;;;;;;11.61;100.00;101418.66;5074185;28;20052;-70
2021/07/01 05:17:33;;;;;;;48.17;20.60;;;;;;;11.58;100.00;101420.41;5074110;28;20028;-69
2021/07/01 05:19:58;;;;;;;45.90;20.83;;;;;;;11.61;100.00;101429.25;5074527;28;20025;-64
2021/07/01 05:22:24;;;;;;;42.50;21.48;;;;;;;11.55;100.00;101426.56;5074114;28;20435;-64
2021/07/01 05:24:49;;;;;;;44.53;19.92;;;;;;;11.56;100.00;101427.44;5073877;28;20466;-64
2021/07/01 05:27:14;;;;;;;43.10;19.95;;;;;;;11.56;100.00;101422.13;5074338;28;20420;-64
2021/07/01 05:29:40;;;;;;;40.05;19.17;;;;;;;11.60;100.00;101423.94;5069713;28;20450;-61
2021/07/01 05:32:05;;;;;;;40.40;20.42;;;;;;;11.60;100.00;101423.94;5071600;28;20028;-62
2021/07/01 05:34:31;;;;;;;42.78;20.80;;;;;;;11.64;100.00;101423.09;5070329;28;20028;-63
2021/07/01 05:36:56;;;;;;;43.20;18.83;;;;;;;11.63;100.00;101418.66;5072139;28;20060;-62
2021/07/01 05:39:21;;;;;;;44.50;19.70;;;;;;;11.65;100.00;101420.47;5068376;28;20565;-61
2021/07/01 05:41:47;;;;;;;45.00;20.27;;;;;;;11.65;100.00;101422.25;5072238;28;20074;-61
2021/07/01 05:44:12;;;;;;;43.72;19.42;;;;;;;11.67;100.00;101417.81;5072169;28;20081;-62
2021/07/01 05:46:38;;;;;;;42.28;19.25;;;;;;;11.65;100.00;101422.25;5072842;28;20083;-63
2021/07/01 05:49:03;;;;;;;44.67;20.10;;;;;;;11.68;100.00;101422.25;5072967;28;20058;-61
2021/07/01 05:51:30;;;;;;;43.92;19.55;;;;;;;11.70;100.00;101420.50;5072536;28;20502;-62
2021/07/01 05:54:10;;;;;;;43.90;20.33;;;;;;;11.73;100.00;101420.53;5072706;28;20548;-61
2021/07/01 05:56:39;;;;;;;43.65;20.35;;;;;;;11.69;100.00;101427.56;5070788;28;20052;-61
2021/07/01 05:59:08;;;;;;;39.47;19.17;;;;;;;11.72;100.00;101425.81;5072302;28;20036;-61
2021/07/01 06:01:35;;;;;;;40.58;18.88;;;;;;;11.77;100.00;101422.34;5072300;28;20547;-62
2021/07/01 06:04:07;;;;;;;40.53;19.10;;;;;;;11.75;100.00;101418.78;5072547;28;20025;-61
2021/07/01 06:06:34;;;;;;;45.40;18.75;;;;;;;11.80;100.00;101424.13;5069041;28;20034;-61
2021/07/01 06:09:02;;;;;;;42.15;18.90;;;;;;;11.83;100.00;101426.78;5072368;28;20037;-62
2021/07/01 06:11:28;;;;;;;40.50;18.92;;;;;;;11.86;100.00;101425.03;5072280;28;20476;-64
2021/07/01 06:13:54;;;;;;;40.00;18.73;;;;;;;11.90;100.00;101428.63;5072183;28;20155;-62
2021/07/01 06:16:23;;;;;;;41.33;18.60;;;;;;;11.92;100.00;101432.16;5072121;28;20028;-62
2021/07/01 06:18:50;;;;;;;40.97;17.92;;;;;;;11.96;100.00;101435.78;5072097;28;20029;-61
2021/07/01 06:21:17;;;;;;;42.38;19.35;;;;;;;11.94;100.00;101429.56;5071851;28;20025;-62
2021/07/01 06:23:42;;;;;;;40.17;18.45;;;;;;;11.95;100.00;101431.34;5071720;28;20034;-61
2021/07/01 06:26:09;;;;;;;41.72;18.60;;;;;;;11.96;100.00;101434.00;5069519;28;20020;-62
2021/07/01 06:28:40;;;;;;;43.45;19.60;;;;;;;11.99;100.00;101433.16;5072144;28;20390;-62
2021/07/01 06:31:06;;;;;;;42.78;18.85;;;;;;;12.00;100.00;101440.22;5072104;28;20441;-63
2021/07/01 06:33:31;;;;;;;39.38;17.30;;;;;;;12.04;100.00;101426.09;5071958;28;20024;-61
2021/07/01 06:35:57;;;;;;;40.42;18.25;;;;;;;12.04;100.00;101434.03;5071747;28;20089;-61
2021/07/01 06:38:25;;;;;;;38.53;17.73;;;;;;;12.10;100.00;101427.91;5072010;28;20021;-60
2021/07/01 06:40:52;;;;;;;38.47;17.50;;;;;;;12.19;100.00;101434.19;5071848;28;20029;-60
2021/07/01 06:43:20;;;;;;;39.35;17.00;;;;;;;12.25;100.00;101435.09;5072049;28;20024;-62
2021/07/01 06:45:49;;;;;;;38.75;17.40;;;;;;;12.20;100.00;101433.31;5068863;28;20360;-61
2021/07/01 06:48:15;;;;;;;36.80;17.48;;;;;;;12.19;100.00;101430.66;5071605;28;20031;-61
2021/07/01 06:50:40;;;;;;;40.97;17.67;;;;;;;12.22;100.00;101430.66;5071952;28;20029;-62
2021/07/01 06:53:06;;;;;;;35.30;15.75;;;;;;;12.31;100.00;101427.19;5071448;28;20028;-61
2021/07/01 06:55:32;;;;;;;38.63;18.05;;;;;;;12.33;100.00;101428.06;5071561;28;20077;-61
2021/07/01 06:57:57;;;;;;;39.10;17.02;;;;;;;12.38;100.00;101436.97;5071229;28;20045;-62
2021/07/01 07:00:23;;;;;;;36.97;16.45;;;;;;;12.32;100.00;101431.59;5065349;28;20394;-62
2021/07/01 07:02:51;;;;;;;35.72;16.67;;;;;;;12.44;100.00;101430.81;5072029;28;20024;-63
2021/07/01 07:05:18;;;;;;;34.97;15.65;;;;;;;12.46;100.00;101440.53;5071735;28;20107;-63
2021/07/01 07:07:45;;;;;;;35.50;15.68;;;;;;;12.54;100.00;101443.25;5071615;28;20033;-62
2021/07/01 07:10:12;;;;;;;34.80;15.25;;;;;;;12.51;100.00;101445.88;5071547;28;20032;-62
2021/07/01 07:12:46;;;;;;;34.65;14.93;;;;;;;12.46;100.00;101445.81;5071803;28;20029;-62
2021/07/01 07:15:29;;;;;;;36.13;15.32;;;;;;;12.51;100.00;101457.34;5067601;28;20121;-63
2021/07/01 07:17:57;;;;;;;;;;;;;;;12.60;100.00;101440.63;5069839;28;20032;-62
2021/07/01 07:20:24;;;;;;;35.13;15.30;;;;;;;12.56;100.00;101447.66;5070647;28;19920;-62
2021/07/01 07:22:50;;;;;;;38.85;16.08;;;;;;;12.69;100.00;101442.44;5071256;28;20162;-63
2021/07/01 07:25:16;;;;;;;35.33;15.32;;;;;;;12.76;100.00;101440.72;5071734;28;20021;-63
2021/07/01 07:27:54;;;;;;;32.08;14.38;;;;;;;12.88;100.00;101454.88;5071890;28;20016;-63
2021/07/01 07:30:20;;;;;;;39.88;14.60;;;;;;;13.03;100.00;101447.88;5075820;28;20063;-63
2021/07/01 07:32:46;;;;;;;33.50;15.23;;;;;;;13.03;100.00;101451.44;5075759;28;20028;-62
2021/07/01 07:35:12;;;;;;;35.42;15.07;;;;;;;13.00;100.00;101450.53;5075480;28;20024;-62
2021/07/01 07:37:37;;;;;;;31.73;13.80;;;;;;;13.00;100.00;101454.06;5075902;28;20020;-62
2021/07/01 07:40:04;;;;;;;32.47;13.65;;;;;;;13.02;100.00;101447.00;5075706;28;20038;-62
2021/07/01 07:42:30;;;;;;;31.42;13.75;;;;;;;13.15;100.00;101453.25;5075647;28;20388;-62
2021/07/01 07:44:58;;;;;;;34.03;13.82;;;;;;;13.25;100.00;101446.16;5076242;28;20016;-63
2021/07/01 07:47:23;;;;;;;30.70;13.02;;;;;;;13.17;100.00;101447.94;5082495;28;20032;-63
2021/07/01 07:49:48;;;;;;;30.60;12.82;;;;;;;13.10;100.00;101444.38;5075989;28;20531;-62
2021/07/01 07:52:14;;;;;;;33.90;14.30;;;;;;;13.23;100.00;101451.47;5076046;28;20467;-63
2021/07/01 07:54:48;;;;;;;32.05;13.52;;;;;;;13.32;100.00;101453.28;5075585;28;20070;-62
2021/07/01 07:57:16;;;;;;;33.15;13.70;;;;;;;13.28;100.00;101453.25;5075415;28;20071;-62
2021/07/01 07:59:46;;;;;;;30.83;13.07;;;;;;;13.18;100.00;101455.91;5075563;28;20035;-63
2021/07/01 08:02:39;;;;;;;32.20;12.60;;;;;;;13.10;100.00;101470.91;5075598;28;20027;-64
2021/07/01 08:05:05;;;;;;;;;;;;;;;13.14;100.00;101458.56;5072306;28;20028;-62
2021/07/01 08:07:31;;;;;;;31.25;12.77;;;;;;;13.16;100.00;101457.66;5075624;28;20282;-62
2021/07/01 08:09:59;;;;;;;31.27;12.88;;;;;;;13.20;100.00;101454.13;5075321;28;20027;-64
2021/07/01 08:12:26;;;;;;;31.80;12.75;;;;;;;13.20;100.00;101455.91;5075500;28;20073;-62
2021/07/01 08:14:51;;;;;;;31.30;12.38;;;;;;;13.17;100.00;101454.13;5075086;28;20031;-63
2021/07/01 08:17:17;;;;;;;29.85;12.38;;;;;;;13.09;100.00;101458.50;5075283;28;20028;-62
2021/07/01 08:19:43;;;;;;;30.88;13.35;;;;;;;13.05;100.00;101457.63;5074308;28;20391;-62
2021/07/01 08:22:09;;;;;;;32.80;13.05;;;;;;;13.08;100.00;101456.75;5073839;28;20020;-63
2021/07/01 08:24:36;;;;;;;32.08;12.70;;;;;;;13.21;100.00;101457.69;5073580;28;20061;-63
2021/07/01 08:27:02;;;;;;;30.58;12.77;;;;;;;13.18;100.00;101455.03;5073315;28;20027;-66
2021/07/01 08:29:28;;;;;;;31.60;12.77;;;;;;;13.22;100.00;101463.00;5073755;28;20452;-68
2021/07/01 08:31:57;;;;;;;30.30;12.73;;;;;;;13.18;100.00;101463.88;5073695;28;20601;-63
2021/07/01 08:34:23;;;;;;;34.35;13.68;;;;;;;13.12;100.00;101458.53;5072220;28;20036;-64
2021/07/01 08:36:49;;;;;;;32.13;13.30;;;;;;;13.25;100.00;101460.34;5073767;28;20517;-67
2021/07/01 08:39:15;;;;;;;30.92;12.85;;;;;;;13.24;100.00;101463.88;5073876;28;20024;-65
2021/07/01 08:41:44;;;;;;;28.95;12.75;;;;;;;13.32;100.00;101465.69;5073481;28;20078;-64
2021/07/01 08:44:22;;;;;;;29.35;12.43;;;;;;;13.32;100.00;101468.34;5074551;28;20048;-63
2021/07/01 08:47:10;;;;;;;28.27;11.68;;;;;;;13.31;100.00;101474.50;5074888;28;20056;-64
2021/07/01 08:49:42;;;;;;;28.58;12.30;;;;;;;13.29;100.00;101474.50;5072480;28;20028;-68
2021/07/01 08:52:12;;;;;;;;;;;;;;;13.45;100.00;101471.94;5071230;28;20387;-63
2021/07/01 08:54:38;;;;;;;31.75;12.68;;;;;;;13.20;100.00;101478.03;5070968;28;19952;-64
2021/07/01 08:57:05;;;;;;;28.75;11.38;;;;;;;13.25;100.00;101470.06;5072752;28;20483;-69
2021/07/01 08:59:38;;;;;;;29.30;11.40;;;;;;;13.22;100.00;101476.28;5069583;28;20082;-62
2021/07/01 09:02:08;;;;;;;28.85;12.35;;;;;;;13.21;100.00;101479.81;5071516;28;20020;-67
2021/07/01 09:04:46;;;;;;;27.65;11.07;;;;;;;13.26;100.00;101471.84;5072456;28;20095;-62
2021/07/01 09:07:22;;;;;;;30.00;11.32;;;;;;;13.27;100.00;101473.63;5071928;28;20360;-62
2021/07/01 09:10:01;;;;;;;28.67;11.48;;;;;;;13.21;100.00;101478.94;5070081;28;20017;-67
2021/07/01 09:12:28;;;;;;;28.67;11.27;;;;;;;13.20;100.00;101478.03;5072083;28;20032;-61
2021/07/01 09:15:04;;;;;;;29.50;11.30;;;;;;;13.36;100.00;101472.81;5072389;28;20035;-62
2021/07/01 09:17:32;;;;;;;30.05;12.00;;;;;;;13.30;100.00;101478.94;5070519;28;20024;-62
2021/07/01 09:19:59;;;;;;;29.05;11.25;;;;;;;13.37;100.00;101485.22;5072731;28;20035;-67
2021/07/01 09:22:26;;;;;;;29.98;12.00;;;;;;;13.14;100.00;101480.66;5069694;28;20055;-67
2021/07/01 09:24:53;;;;;;;32.90;12.88;;;;;;;12.98;100.00;101486.78;5073380;28;20028;-67
2021/07/01 09:27:19;;;;;;;32.85;12.43;;;;;;;12.88;100.00;101484.06;5073167;28;20077;-66
2021/07/01 09:29:46;;;;;;;28.42;11.35;;;;;;;12.96;100.00;101488.53;5073425;28;20426;-65
2021/07/01 09:32:13;;;;;;;30.08;11.55;;;;;;;12.93;100.00;101485.88;5071620;28;20476;-66
2021/07/01 09:34:40;;;;;;;32.05;13.60;;;;;;;12.99;100.00;101486.81;5072741;28;20036;-67
2021/07/01 09:37:06;;;;;;;30.35;11.95;;;;;;;13.05;100.00;101485.94;5072505;28;20021;-67
2021/07/01 09:39:32;;;;;;;30.15;12.73;;;;;;;13.10;100.00;101492.13;5072845;28;20382;-68
2021/07/01 09:42:01;;;;;;;30.25;11.63;;;;;;;13.12;100.00;101492.16;5072701;28;20028;-68
2021/07/01 09:44:28;;;;;;;31.38;12.20;;;;;;;13.18;100.00;101482.44;5072483;28;20029;-67
2021/07/01 09:46:58;;;;;;;29.92;12.85;;;;;;;13.18;100.00;101490.41;5072193;28;20043;-66
2021/07/01 09:49:31;;;;;;;28.73;12.40;;;;;;;13.15;100.00;101487.75;5072645;28;20032;-66
2021/07/01 09:52:01;;;;;;;32.92;12.68;;;;;;;12.99;100.00;101489.44;5072296;28;20056;-67
2021/07/01 09:54:30;;;;;;;31.60;12.30;;;;;;;12.90;100.00;101494.69;5072606;28;20056;-66
2021/07/01 09:56:58;;;;;;;29.58;12.43;;;;;;;12.90;100.00;101494.69;5072611;28;20036;-68
2021/07/01 09:59:26;;;;;;;28.80;11.23;;;;;;;12.89;100.00;101493.81;5072265;28;20039;-68
2021/07/01 10:01:52;;;;;;;31.23;12.40;;;;;;;12.96;100.00;101493.84;5072154;28;20032;-66
2021/07/01 10:04:17;;;;;;;30.13;11.38;;;;;;;13.07;100.00;101502.75;5071290;28;20364;-66
2021/07/01 10:06:43;;;;;;;31.17;11.70;;;;;;;13.14;100.00;101506.31;5072715;28;20089;-67
2021/07/01 10:09:09;;;;;;;30.48;10.95;;;;;;;13.18;100.00;101511.66;5072436;28;20382;-67
2021/07/01 10:11:36;;;;;;;30.27;11.02;;;;;;;13.24;100.00;101506.34;5071621;28;20028;-69
2021/07/01 10:14:09;;;;;;;27.15;10.90;;;;;;;13.29;100.00;101502.84;5072131;28;20074;-66
2021/07/01 10:16:35;;;;;;;29.13;10.65;;;;;;;13.31;100.00;101501.06;5072434;28;20133;-66
2021/07/01 10:19:03;;;;;;;27.52;10.23;;;;;;;13.36;100.00;101504.66;5072400;28;20472;-69
2021/07/01 10:21:31;;;;;;;27.67;10.02;;;;;;;13.47;100.00;101513.56;5071907;28;20032;-69
2021/07/01 10:24:29;;;;;;;27.98;9.82;;;;;;;13.63;100.00;101508.28;5072281;28;20127;-66
2021/07/01 10:26:56;;;;;;;26.52;10.07;;;;;;;13.55;100.00;101505.59;5023685;28;20041;-69
2021/07/01 10:29:22;;;;;;;25.83;9.77;;;;;;;13.61;100.00;101513.59;5030170;28;20042;-68
2021/07/01 10:31:56;;;;;;;26.10;9.65;;;;;;;13.65;100.00;101512.72;5030274;28;20045;-66
2021/07/01 10:34:23;;;;;;;27.23;9.77;;;;;;;13.64;100.00;101502.97;5030530;28;20100;-66
2021/07/01 10:37:12;;;;;;;27.25;9.98;;;;;;;13.71;99.53;101512.72;5013932;28;20447;-69
2021/07/01 10:39:39;;;;;;;26.73;9.98;;;;;;;13.65;98.67;101506.53;5026685;28;20536;-66
2021/07/01 10:42:05;;;;;;;27.83;9.52;;;;;;;13.72;100.00;101517.16;5029317;28;20045;-67
2021/07/01 10:44:31;;;;;;;29.45;10.80;;;;;;;13.78;98.53;101521.59;5029762;28;20056;-66
2021/07/01 10:46:56;;;;;;;27.70;9.23;;;;;;;13.86;98.03;101516.28;5029798;28;20068;-61
2021/07/01 10:49:33;;;;;;;29.80;10.52;;;;;;;13.83;97.28;101511.84;5029758;28;20391;-62
2021/07/01 10:51:59;;;;;;;29.58;10.70;;;;;;;13.84;95.53;101513.63;5027659;28;20056;-61
2021/07/01 10:54:25;;;;;;;31.35;10.88;;;;;;;13.87;97.94;101510.97;5025732;28;20025;-61
2021/07/01 10:57:01;;;;;;;31.73;10.80;;;;;;;14.00;94.29;101513.66;5028221;28;20491;-61
2021/07/01 10:59:45;;;;;;;25.83;9.70;;;;;;;14.16;93.28;101525.19;5028146;28;20029;-62
2021/07/01 11:02:20;;;;;;;31.58;10.85;;;;;;;14.10;95.60;101520.75;5028595;28;20033;-62